Time;durP1;ratioP1;P1;durP2;ratioP2;P2;SDS_P1;SDS_P2;PMS_P1;PMS_P2;Temp;Humidity;BMP_temperature;BMP_pressure;BME280_temperature;BME280_humidity;BME280_pressure;Samples;Min_cycle;Max_cycle;Signal;HPM_P1;HPM_P2
2022/05/05 00:02:13;;;;;;;10.65;5.97;;;16.50;99.90;;;;;;5051909;28;20238;-74
2022/05/05 00:04:39;;;;;;;7.68;5.60;;;16.60;99.90;;;;;;5051676;28;20227;-74
2022/05/05 00:07:04;;;;;;;8.95;6.72;;;16.50;99.90;;;;;;5051955;28;20539;-74
2022/05/05 00:09:30;;;;;;;13.65;6.43;;;16.50;99.90;;;;;;5050664;28;20320;-74
2022/05/05 00:14:41;;;;;;;7.20;6.03;;;16.50;99.90;;;;;;5052405;28;20651;-74
2022/05/05 00:17:09;;;;;;;7.25;5.75;;;16.50;99.90;;;;;;5050241;28;20211;-74
2022/05/05 00:19:36;;;;;;;9.95;6.72;;;16.50;99.90;;;;;;5049415;28;20287;-74
2022/05/05 00:22:04;;;;;;;9.38;6.15;;;16.60;99.90;;;;;;5051713;28;20192;-74
2022/05/05 00:24:30;;;;;;;8.05;6.90;;;16.50;99.90;;;;;;5051607;28;20200;-74
2022/05/05 00:26:56;;;;;;;9.77;7.00;;;16.60;99.90;;;;;;5050769;28;20179;-74
2022/05/05 00:29:22;;;;;;;8.73;6.93;;;16.60;99.90;;;;;;5049789;28;20250;-74
2022/05/05 00:31:47;;;;;;;8.85;6.55;;;16.60;99.90;;;;;;5051867;28;20204;-75
2022/05/05 00:34:13;;;;;;;9.55;6.70;;;16.60;99.90;;;;;;5051087;28;20252;-75
2022/05/05 00:36:39;;;;;;;9.52;6.38;;;16.60;99.90;;;;;;5051468;28;20277;-73
2022/05/05 00:39:06;;;;;;;9.25;6.90;;;16.60;99.90;;;;;;5050852;28;20684;-74
2022/05/05 00:41:36;;;;;;;10.90;7.57;;;16.60;99.90;;;;;;5052150;28;20168;-74
2022/05/05 00:44:04;;;;;;;8.77;7.10;;;16.60;99.90;;;;;;5051049;28;20196;-74
2022/05/05 00:46:30;;;;;;;11.25;7.38;;;16.50;99.90;;;;;;5049946;28;20222;-73
2022/05/05 00:48:56;;;;;;;9.68;6.72;;;16.50;99.90;;;;;;5050225;28;20736;-73
2022/05/05 00:51:21;;;;;;;8.25;7.22;;;16.40;99.90;;;;;;5049649;28;20233;-74
2022/05/05 00:53:47;;;;;;;7.85;7.15;;;16.40;99.90;;;;;;5051417;28;20168;-74
2022/05/05 00:56:14;;;;;;;9.90;7.78;;;16.40;99.90;;;;;;5051113;28;20716;-73
2022/05/05 00:58:42;;;;;;;11.95;9.02;;;16.20;99.90;;;;;;5049774;28;20208;-73
2022/05/05 01:01:08;;;;;;;9.07;7.57;;;16.00;99.90;;;;;;5049573;28;20265;-73
2022/05/05 01:03:35;;;;;;;9.82;8.10;;;16.00;99.90;;;;;;5050596;28;20203;-73
2022/05/05 01:06:08;;;;;;;10.10;7.75;;;16.00;99.90;;;;;;5050418;28;20612;-73
2022/05/05 01:08:34;;;;;;;10.65;7.03;;;15.90;99.90;;;;;;5050089;28;20215;-73
2022/05/05 01:11:00;;;;;;;8.35;6.78;;;15.80;99.90;;;;;;5048567;28;20276;-73
2022/05/05 01:13:27;;;;;;;8.75;6.90;;;15.70;99.90;;;;;;5050523;28;20685;-73
2022/05/05 01:15:53;;;;;;;9.50;6.25;;;15.70;99.90;;;;;;5050693;28;20196;-73
2022/05/05 01:18:18;;;;;;;10.93;7.43;;;15.60;99.90;;;;;;5049594;28;21059;-73
2022/05/05 01:20:54;;;;;;;6.18;5.57;;;15.50;99.90;;;;;;5050773;28;20199;-73
2022/05/05 01:23:21;;;;;;;8.57;6.80;;;15.50;99.90;;;;;;5050606;28;20203;-73
2022/05/05 01:28:34;;;;;;;11.63;5.65;;;15.50;99.90;;;;;;5030121;28;20254;-75
2022/05/05 01:31:01;;;;;;;5.75;5.07;;;15.30;99.90;;;;;;5030839;28;20215;-74
2022/05/05 01:33:28;;;;;;;8.45;5.10;;;15.10;99.90;;;;;;5030345;28;20681;-74
2022/05/05 01:35:55;;;;;;;9.60;6.65;;;15.20;99.90;;;;;;5012958;28;20245;-77
2022/05/05 01:38:24;;;;;;;8.73;5.68;;;15.10;99.90;;;;;;5028613;28;20169;-74
2022/05/05 01:40:50;;;;;;;6.93;5.05;;;15.10;99.90;;;;;;5030321;28;20687;-74
2022/05/05 01:43:17;;;;;;;8.45;5.38;;;15.10;99.90;;;;;;5030943;28;20210;-75
2022/05/05 01:45:43;;;;;;;9.27;5.13;;;15.10;99.90;;;;;;5032746;28;20204;-74
2022/05/05 01:48:09;;;;;;;6.72;5.25;;;15.00;99.90;;;;;;5030235;28;20252;-75
2022/05/05 01:50:36;;;;;;;9.98;4.97;;;15.00;99.90;;;;;;5032781;28;20267;-75
2022/05/05 01:53:03;;;;;;;7.30;4.85;;;15.00;99.90;;;;;;5031101;28;20692;-75
2022/05/05 01:55:30;;;;;;;8.10;5.53;;;15.00;99.90;;;;;;5031547;28;20220;-75
2022/05/05 01:57:57;;;;;;;7.78;5.45;;;15.10;99.90;;;;;;5028978;28;20192;-75
2022/05/05 02:00:23;;;;;;;10.57;5.53;;;15.10;99.90;;;;;;5030005;28;20219;-75
2022/05/05 02:02:48;;;;;;;10.82;6.13;;;15.00;99.90;;;;;;5013827;28;20175;-75
2022/05/05 02:05:14;;;;;;;7.28;5.80;;;14.90;99.90;;;;;;5030747;28;20258;-75
2022/05/05 02:07:41;;;;;;;7.22;5.28;;;15.00;99.90;;;;;;5012729;28;20231;-73
2022/05/05 02:10:08;;;;;;;9.98;5.20;;;15.00;99.90;;;;;;5029309;28;20211;-75
2022/05/05 02:12:38;;;;;;;11.68;5.88;;;14.90;99.90;;;;;;5029502;28;20269;-75
2022/05/05 02:15:06;;;;;;;11.18;5.75;;;14.90;99.90;;;;;;5029688;28;20176;-75
2022/05/05 02:17:32;;;;;;;7.93;5.47;;;14.90;99.90;;;;;;5029784;28;20176;-75
2022/05/05 02:19:59;;;;;;;16.80;6.72;;;14.90;99.90;;;;;;5011686;28;20200;-76
2022/05/05 02:22:24;;;;;;;6.72;5.80;;;14.90;99.90;;;;;;5030451;28;20204;-77
2022/05/05 02:24:50;;;;;;;11.80;5.82;;;14.90;99.90;;;;;;5034353;28;20204;-75
2022/05/05 02:27:16;;;;;;;10.43;6.60;;;14.90;99.90;;;;;;5034719;28;20243;-75
2022/05/05 02:29:42;;;;;;;7.60;6.28;;;14.80;99.90;;;;;;5034061;28;20177;-74
2022/05/05 02:32:08;;;;;;;10.45;6.65;;;14.80;99.90;;;;;;5033910;28;20204;-76
2022/05/05 02:34:33;;;;;;;10.80;6.68;;;14.70;99.90;;;;;;5035405;28;20267;-76
2022/05/05 02:39:43;;;;;;;11.05;6.28;;;14.70;99.90;;;;;;5034374;28;20302;-75
2022/05/05 02:42:09;;;;;;;11.95;6.28;;;14.70;99.90;;;;;;5033759;28;20596;-75
2022/05/05 02:44:34;;;;;;;14.85;6.82;;;14.60;99.90;;;;;;5035383;28;20188;-75
2022/05/05 02:47:00;;;;;;;12.07;6.90;;;14.60;99.90;;;;;;5029861;28;20244;-75
2022/05/05 02:49:27;;;;;;;13.38;6.45;;;14.60;99.90;;;;;;5029367;28;20204;-75
2022/05/05 02:51:53;;;;;;;10.65;6.43;;;14.60;99.90;;;;;;5033490;28;20214;-75
2022/05/05 02:57:03;;;;;;;10.00;6.68;;;14.60;99.90;;;;;;5029925;28;20202;-75
2022/05/05 02:59:29;;;;;;;10.02;6.97;;;14.50;99.90;;;;;;5038028;28;20196;-75
2022/05/05 03:01:54;;;;;;;7.65;6.65;;;14.60;99.90;;;;;;5034650;28;20227;-74
2022/05/05 03:04:20;;;;;;;11.65;7.43;;;14.50;99.90;;;;;;5036896;28;20197;-75
2022/05/05 03:06:45;;;;;;;9.88;6.93;;;14.50;99.90;;;;;;5036804;28;20785;-75
2022/05/05 03:09:11;;;;;;;8.35;6.20;;;14.50;99.90;;;;;;5035957;28;20641;-74
2022/05/05 03:11:36;;;;;;;7.80;6.57;;;14.40;99.90;;;;;;5040916;28;20172;-75
2022/05/05 03:14:02;;;;;;;12.85;7.05;;;14.50;99.90;;;;;;5041398;28;20205;-77
2022/05/05 03:16:28;;;;;;;13.63;6.75;;;14.40;99.90;;;;;;5042096;28;20220;-75
2022/05/05 03:18:53;;;;;;;9.88;6.85;;;14.30;99.90;;;;;;5040714;28;20227;-75
2022/05/05 03:21:19;;;;;;;13.27;7.35;;;14.40;99.90;;;;;;5038712;28;20239;-76
2022/05/05 03:23:44;;;;;;;11.38;7.93;;;14.40;99.90;;;;;;5039631;28;20176;-77
2022/05/05 03:26:10;;;;;;;13.38;7.47;;;14.50;99.90;;;;;;5038620;28;20223;-75
2022/05/05 03:28:35;;;;;;;11.98;7.75;;;14.50;99.90;;;;;;5034019;28;20408;-75
2022/05/05 03:31:01;;;;;;;10.40;7.38;;;14.40;99.90;;;;;;5034424;28;20211;-76
2022/05/05 03:33:26;;;;;;;10.75;7.80;;;14.40;99.90;;;;;;5031306;28;20208;-75
2022/05/05 03:35:53;;;;;;;10.73;7.25;;;14.40;99.90;;;;;;5035217;28;20246;-75
2022/05/05 03:38:19;;;;;;;12.20;7.53;;;14.40;99.90;;;;;;5037263;28;20208;-75
2022/05/05 03:40:45;;;;;;;12.23;7.30;;;14.40;99.90;;;;;;5031997;28;20211;-75
2022/05/05 03:43:11;;;;;;;10.32;7.30;;;14.40;99.90;;;;;;5015355;28;20676;-75
2022/05/05 03:45:36;;;;;;;11.23;7.82;;;14.30;99.90;;;;;;5015107;28;20299;-75
2022/05/05 03:48:02;;;;;;;12.10;7.75;;;14.40;99.90;;;;;;5035777;28;20613;-74
2022/05/05 03:50:28;;;;;;;12.23;7.90;;;14.30;99.90;;;;;;5036481;28;20160;-75
2022/05/05 03:52:53;;;;;;;11.32;7.60;;;14.30;99.90;;;;;;5018218;28;20287;-75
2022/05/05 03:55:19;;;;;;;13.07;8.60;;;14.20;99.90;;;;;;5039734;28;20739;-76
2022/05/05 03:57:44;;;;;;;12.27;8.20;;;14.20;99.90;;;;;;5036060;28;20216;-75
2022/05/05 04:00:10;;;;;;;13.43;8.52;;;14.20;99.90;;;;;;5034332;28;20196;-75
2022/05/05 04:02:36;;;;;;;10.30;7.47;;;14.30;99.90;;;;;;5034603;28;20184;-75
2022/05/05 04:05:01;;;;;;;10.43;8.10;;;14.30;99.90;;;;;;5033467;28;20243;-75
2022/05/05 04:07:27;;;;;;;11.10;7.20;;;14.40;99.90;;;;;;5037181;28;20582;-75
2022/05/05 04:09:54;;;;;;;11.38;7.78;;;14.50;99.90;;;;;;5033146;28;20617;-75
2022/05/05 04:12:20;;;;;;;11.38;7.68;;;14.40;99.90;;;;;;5031800;28;20200;-75
2022/05/05 04:14:47;;;;;;;9.63;7.90;;;14.20;99.90;;;;;;5027625;28;20167;-76
2022/05/05 04:17:12;;;;;;;11.02;7.40;;;14.30;99.90;;;;;;5035740;28;20211;-78
2022/05/05 04:19:39;;;;;;;14.55;8.65;;;14.00;99.90;;;;;;5033208;28;20212;-75
2022/05/05 04:22:04;;;;;;;11.73;8.10;;;14.00;99.90;;;;;;5035229;28;20199;-74
2022/05/05 04:24:30;;;;;;;11.80;8.75;;;14.00;99.90;;;;;;5035188;28;20200;-75
2022/05/05 04:26:55;;;;;;;11.05;8.15;;;14.10;99.90;;;;;;5035017;28;20262;-75
2022/05/05 04:29:21;;;;;;;9.50;7.57;;;14.10;99.90;;;;;;5034216;28;20180;-76
2022/05/05 04:31:46;;;;;;;13.20;7.75;;;14.10;99.90;;;;;;5033238;28;20215;-74
2022/05/05 04:34:12;;;;;;;11.32;7.85;;;14.10;99.90;;;;;;5034972;28;20207;-75
2022/05/05 04:36:37;;;;;;;13.27;8.45;;;14.00;99.90;;;;;;5034321;28;20261;-76
2022/05/05 04:39:05;;;;;;;11.82;8.35;;;14.00;99.90;;;;;;5033687;28;20227;-75
2022/05/05 04:41:31;;;;;;;12.02;7.68;;;13.90;99.90;;;;;;5032908;28;20164;-75
2022/05/05 04:43:56;;;;;;;12.43;8.02;;;14.00;99.90;;;;;;5031730;28;20200;-75
2022/05/05 04:46:22;;;;;;;9.68;7.72;;;14.00;99.90;;;;;;5036382;28;20288;-75
2022/05/05 04:48:48;;;;;;;11.95;8.48;;;14.00;99.90;;;;;;5030500;28;20196;-75
2022/05/05 04:51:14;;;;;;;14.77;8.93;;;14.00;99.90;;;;;;5032000;28;20227;-75
2022/05/05 04:53:40;;;;;;;12.80;8.60;;;14.00;99.90;;;;;;5032130;28;20187;-74
2022/05/05 04:56:06;;;;;;;10.13;7.75;;;14.10;99.90;;;;;;5032025;28;20204;-74
2022/05/05 04:58:33;;;;;;;10.45;7.45;;;14.20;99.90;;;;;;5030842;28;20569;-76
2022/05/05 05:00:59;;;;;;;13.13;8.68;;;14.20;99.90;;;;;;5014331;28;20196;-75
2022/05/05 05:03:35;;;;;;;13.93;8.77;;;14.20;99.90;;;;;;5031959;28;20584;-76
2022/05/05 05:06:01;;;;;;;14.38;9.18;;;14.30;99.90;;;;;;5032219;28;20246;-75
2022/05/05 05:08:27;;;;;;;13.05;7.70;;;14.40;99.90;;;;;;5048849;28;20698;-74
2022/05/05 05:10:52;;;;;;;10.00;8.18;;;14.30;99.90;;;;;;5051652;28;20718;-75
2022/05/05 05:13:18;;;;;;;12.15;8.27;;;14.50;99.90;;;;;;5033448;28;20199;-75
2022/05/05 05:15:43;;;;;;;15.13;8.68;;;14.40;99.90;;;;;;5051227;28;20672;-74
2022/05/05 05:18:09;;;;;;;12.07;8.48;;;14.50;99.90;;;;;;5050477;28;20172;-75
2022/05/05 05:20:34;;;;;;;11.43;7.47;;;14.60;99.90;;;;;;5050356;28;20195;-76
2022/05/05 05:23:00;;;;;;;9.30;7.43;;;14.60;99.90;;;;;;5051509;28;20222;-74
2022/05/05 05:25:25;;;;;;;11.00;7.70;;;14.60;99.90;;;;;;5051635;28;20210;-76
2022/05/05 05:27:51;;;;;;;11.02;8.05;;;14.50;99.90;;;;;;5050978;28;20203;-77
2022/05/05 05:30:16;;;;;;;13.93;8.10;;;14.70;99.90;;;;;;5051055;28;20199;-75
2022/05/05 05:32:42;;;;;;;12.52;8.05;;;15.00;99.90;;;;;;5034428;28;20179;-75
2022/05/05 05:35:07;;;;;;;12.25;7.93;;;15.00;99.90;;;;;;5052971;28;20282;-76
2022/05/05 05:37:33;;;;;;;9.18;7.65;;;15.00;99.90;;;;;;5044682;28;20273;-75
2022/05/05 05:39:58;;;;;;;11.07;7.82;;;15.00;99.90;;;;;;5050564;28;20207;-74
2022/05/05 05:42:24;;;;;;;15.77;8.00;;;15.10;99.90;;;;;;5042709;28;20196;-75
2022/05/05 05:44:49;;;;;;;17.05;8.93;;;15.10;99.90;;;;;;5051949;28;20668;-75
2022/05/05 05:47:16;;;;;;;11.15;8.23;;;15.10;99.90;;;;;;5034246;28;20199;-75
2022/05/05 05:49:41;;;;;;;12.23;8.02;;;15.10;99.90;;;;;;5033379;28;20230;-74
2022/05/05 05:52:07;;;;;;;11.73;8.02;;;15.30;99.90;;;;;;5039062;28;20675;-76
2022/05/05 05:54:32;;;;;;;11.40;7.65;;;15.30;99.90;;;;;;5041891;28;20214;-75
2022/05/05 05:56:58;;;;;;;14.55;7.43;;;15.30;99.90;;;;;;5051618;28;20188;-75
2022/05/05 05:59:23;;;;;;;9.90;7.03;;;15.40;99.90;;;;;;5051302;28;20274;-74
2022/05/05 06:04:33;;;;;;;10.55;7.50;;;15.50;99.90;;;;;;5051321;28;20253;-76
2022/05/05 06:06:59;;;;;;;11.88;7.97;;;15.40;99.90;;;;;;5042499;28;20200;-75
2022/05/05 06:09:24;;;;;;;14.45;9.15;;;15.40;99.90;;;;;;5049743;28;20196;-75
2022/05/05 06:11:50;;;;;;;12.23;7.60;;;15.40;99.90;;;;;;5051166;28;20167;-76
2022/05/05 06:14:16;;;;;;;15.95;8.40;;;15.50;99.90;;;;;;5042265;28;20587;-75
2022/05/05 06:16:41;;;;;;;11.13;7.28;;;15.80;99.90;;;;;;5032456;28;20203;-73
2022/05/05 06:19:07;;;;;;;14.40;7.28;;;17.30;99.90;;;;;;5050434;28;20378;-74
2022/05/05 06:21:32;;;;;;;11.80;6.63;;;18.30;99.90;;;;;;5039836;28;20212;-74
2022/05/05 06:23:57;;;;;;;11.35;6.95;;;18.20;99.90;;;;;;5051695;28;20208;-74
2022/05/05 06:26:23;;;;;;;10.18;6.97;;;18.00;99.90;;;;;;5039619;28;20215;-78
2022/05/05 06:28:49;;;;;;;13.35;6.80;;;17.70;99.90;;;;;;5043341;28;20300;-74
2022/05/05 06:31:16;;;;;;;14.05;7.53;;;17.30;99.90;;;;;;5045872;28;20203;-74
2022/05/05 06:33:42;;;;;;;10.93;6.88;;;16.90;99.90;;;;;;5039315;28;20203;-77
2022/05/05 06:36:08;;;;;;;12.35;7.20;;;16.60;99.90;;;;;;5043196;28;20546;-74
2022/05/05 06:38:34;;;;;;;11.98;7.28;;;16.50;99.90;;;;;;5046933;28;20163;-74
2022/05/05 06:40:59;;;;;;;12.27;7.25;;;16.60;99.90;;;;;;5040497;28;20262;-74
2022/05/05 06:43:25;;;;;;;10.00;7.07;;;16.80;99.90;;;;;;5046593;28;20200;-74
2022/05/05 06:45:51;;;;;;;14.40;8.30;;;17.10;99.90;;;;;;5042081;28;20211;-75
2022/05/05 06:48:17;;;;;;;10.35;7.03;;;17.30;99.90;;;;;;5030437;28;20259;-75
2022/05/05 06:50:42;;;;;;;11.15;6.97;;;17.50;99.90;;;;;;5050058;28;20705;-75
2022/05/05 06:53:08;;;;;;;12.77;8.15;;;17.40;99.90;;;;;;5040574;28;20291;-74
2022/05/05 06:55:33;;;;;;;12.25;7.35;;;17.70;99.90;;;;;;5040240;28;20208;-75
2022/05/05 06:57:59;;;;;;;9.95;7.13;;;18.00;99.90;;;;;;5046428;28;20774;-72
2022/05/05 07:01:51;;;;;;;9.23;7.25;;;17.90;99.90;;;;;;5035112;28;20294;-74
2022/05/05 07:03:10;;;;;;;10.82;7.07;;;17.90;99.90;;;;;;5031159;28;20595;-71
2022/05/05 07:05:36;;;;;;;10.98;7.22;;;17.70;99.90;;;;;;5030035;28;20184;-75
2022/05/05 07:08:02;;;;;;;10.50;8.18;;;17.80;99.90;;;;;;5013400;28;20208;-74
2022/05/05 07:13:12;;;;;;;14.52;7.75;;;18.50;99.90;;;;;;5032880;28;20696;-71
2022/05/05 07:15:38;;;;;;;11.05;7.22;;;19.40;99.90;;;;;;5037985;28;20200;-71
2022/05/05 07:18:04;;;;;;;10.65;6.30;;;20.10;99.90;;;;;;5033158;28;20313;-72
2022/05/05 07:20:30;;;;;;;16.77;6.70;;;20.70;99.90;;;;;;5036897;28;20208;-71
2022/05/05 07:22:56;;;;;;;13.70;6.65;;;21.00;99.90;;;;;;5018138;28;20669;-72
2022/05/05 07:25:22;;;;;;;9.80;6.60;;;21.10;99.90;;;;;;5017273;28;20200;-71
2022/05/05 07:27:48;;;;;;;11.77;7.22;;;21.40;99.90;;;;;;5034727;28;20208;-71
2022/05/05 07:30:14;;;;;;;9.18;6.72;;;21.50;99.90;;;;;;5034501;28;20240;-72
2022/05/05 07:32:40;;;;;;;10.93;6.68;;;22.20;99.90;;;;;;5033348;28;20623;-71
2022/05/05 07:35:06;;;;;;;11.48;6.05;;;23.10;99.90;;;;;;5030696;28;20242;-73
2022/05/05 07:37:32;;;;;;;9.27;6.53;;;23.60;99.90;;;;;;5034196;28;20216;-71
2022/05/05 07:39:58;;;;;;;11.25;6.78;;;24.70;99.90;;;;;;5036664;28;20228;-71
2022/05/05 07:42:23;;;;;;;9.80;6.45;;;25.40;99.90;;;;;;5036979;28;20212;-71
2022/05/05 07:44:48;;;;;;;8.88;6.18;;;26.10;99.90;;;;;;5037595;28;20254;-69
2022/05/05 07:47:14;;;;;;;7.55;5.97;;;26.80;99.90;;;;;;5036673;28;20231;-70
2022/05/05 07:49:39;;;;;;;10.57;7.50;;;27.10;99.90;;;;;;5037540;28;20205;-70
2022/05/05 07:52:05;;;;;;;7.05;6.07;;;27.80;99.90;;;;;;5036577;28;20200;-70
2022/05/05 07:54:43;;;;;;;8.25;6.55;;;28.10;99.90;;;;;;5037857;28;20266;-70
2022/05/05 07:57:13;;;;;;;8.43;5.65;;;28.30;99.90;;;;;;5035071;28;20199;-70
2022/05/05 07:59:40;;;;;;;7.88;5.60;;;29.00;99.90;;;;;;5038198;28;20691;-70
2022/05/05 08:02:13;;;;;;;9.57;5.72;;;28.50;99.90;;;;;;5036445;28;20231;-70
2022/05/05 08:04:38;;;;;;;8.02;5.45;;;29.20;99.90;;;;;;5038710;28;20199;-70
2022/05/05 08:07:04;;;;;;;7.03;5.43;;;29.50;98.90;;;;;;5016888;28;20568;-71
2022/05/05 08:09:29;;;;;;;9.38;6.20;;;29.50;98.10;;;;;;5035762;28;20258;-70
2022/05/05 08:11:55;;;;;;;7.95;6.15;;;29.20;97.90;;;;;;5037857;28;20549;-70
2022/05/05 08:14:20;;;;;;;12.18;7.10;;;29.20;97.60;;;;;;5037034;28;20175;-71
2022/05/05 08:16:46;;;;;;;9.30;6.82;;;29.30;97.30;;;;;;5037373;28;20207;-70
2022/05/05 08:19:11;;;;;;;7.57;5.78;;;28.80;97.20;;;;;;5040082;28;20219;-70
2022/05/05 08:21:37;;;;;;;11.75;6.38;;;28.10;97.90;;;;;;5052133;28;20299;-70
2022/05/05 08:29:31;;;;;;;9.32;5.57;;;28.10;97.80;;;;;;5052197;28;20251;-70
2022/05/05 08:31:57;;;;;;;6.90;5.65;;;27.60;97.90;;;;;;5052332;28;20616;-70
2022/05/05 08:34:23;;;;;;;7.95;6.43;;;28.10;97.90;;;;;;5051832;28;20291;-70
2022/05/05 08:36:48;;;;;;;8.73;5.90;;;28.10;98.10;;;;;;5026033;28;20322;-71
2022/05/05 08:39:14;;;;;;;16.75;10.50;;;28.10;98.00;;;;;;5049902;28;20222;-71
2022/05/05 08:41:40;;;;;;;15.35;10.02;;;28.00;97.60;;;;;;5052282;28;20183;-70
2022/05/05 08:44:07;;;;;;;7.18;5.45;;;28.50;97.50;;;;;;5034064;28;20290;-70
2022/05/05 08:46:33;;;;;;;11.70;5.32;;;28.10;96.90;;;;;;5050409;28;20228;-71
2022/05/05 08:49:04;;;;;;;8.50;5.57;;;27.80;98.20;;;;;;5032860;28;20207;-69
2022/05/05 08:51:41;;;;;;;7.07;5.57;;;28.00;97.30;;;;;;5051737;28;20211;-70
2022/05/05 08:54:10;;;;;;;8.00;5.32;;;28.00;97.20;;;;;;5051697;28;20177;-71
2022/05/05 08:56:35;;;;;;;30.23;16.88;;;27.90;96.90;;;;;;5052149;28;20227;-72
2022/05/05 08:59:03;;;;;;;11.82;7.45;;;28.20;96.80;;;;;;5042911;28;20298;-71
2022/05/05 09:01:36;;;;;;;10.70;7.47;;;27.90;97.30;;;;;;5051790;28;20235;-75
2022/05/05 09:04:04;;;;;;;9.15;5.45;;;27.70;96.40;;;;;;5052367;28;20288;-77
2022/05/05 09:06:51;;;;;;;7.93;5.53;;;27.10;97.30;;;;;;5043741;28;20219;-76
2022/05/05 09:09:35;;;;;;;8.07;4.80;;;27.10;97.60;;;;;;5035073;28;20207;-76
2022/05/05 09:12:20;;;;;;;6.28;5.03;;;27.40;97.00;;;;;;5041177;28;20590;-74
2022/05/05 09:14:48;;;;;;;9.40;5.72;;;27.60;96.90;;;;;;5037164;28;20172;-73
2022/05/05 09:17:15;;;;;;;9.30;5.82;;;27.30;97.00;;;;;;5051417;28;20637;-72
2022/05/05 09:19:43;;;;;;;8.05;5.30;;;27.40;97.10;;;;;;5043818;28;20228;-72
2022/05/05 09:22:10;;;;;;;8.30;5.18;;;27.20;97.20;;;;;;5049913;28;20224;-75
2022/05/05 09:24:36;;;;;;;11.95;5.65;;;26.20;98.00;;;;;;5048190;28;20219;-76
2022/05/05 09:27:33;;;;;;;6.28;5.05;;;25.50;99.40;;;;;;5051215;28;20207;-76
2022/05/05 09:30:05;;;;;;;11.68;5.15;;;24.60;99.30;;;;;;5049284;28;20175;-77
2022/05/05 09:32:37;;;;;;;14.77;5.43;;;24.60;99.70;;;;;;5033424;28;20602;-76
2022/05/05 09:35:09;;;;;;;8.48;4.97;;;24.40;99.90;;;;;;5050097;28;20207;-77
2022/05/05 09:37:36;;;;;;;9.27;5.28;;;24.40;99.90;;;;;;5025136;28;20235;-78
2022/05/05 09:40:03;;;;;;;8.82;5.80;;;23.70;99.90;;;;;;5050119;28;20211;-77
2022/05/05 09:42:40;;;;;;;11.60;5.93;;;23.60;99.90;;;;;;5042721;28;20232;-76
2022/05/05 09:45:13;;;;;;;8.85;4.72;;;23.60;99.90;;;;;;5033041;28;20271;-75
2022/05/05 09:47:41;;;;;;;10.65;7.03;;;23.80;99.90;;;;;;5050072;28;20184;-73
2022/05/05 09:50:07;;;;;;;12.00;5.70;;;23.50;99.90;;;;;;5051300;28;20628;-73
2022/05/05 09:58:08;;;;;;;7.80;5.30;;;24.00;99.90;;;;;;5055239;28;20206;-73
2022/05/05 10:00:44;;;;;;;7.80;5.57;;;24.10;99.90;;;;;;5054602;28;20303;-77
2022/05/05 10:05:58;;;;;;;9.88;5.10;;;24.10;99.90;;;;;;5040429;28;20265;-76
2022/05/05 10:08:40;;;;;;;9.07;4.97;;;24.30;99.00;;;;;;5050330;28;20179;-77
2022/05/05 10:11:07;;;;;;;7.55;4.75;;;24.30;98.90;;;;;;5052973;28;20204;-76
2022/05/05 10:13:35;;;;;;;9.30;4.85;;;24.70;99.10;;;;;;5052433;28;20203;-75
2022/05/05 10:16:02;;;;;;;7.50;4.78;;;25.20;98.20;;;;;;5035061;28;20211;-74
2022/05/05 10:18:28;;;;;;;10.02;5.38;;;24.90;98.40;;;;;;5046862;28;20653;-75
2022/05/05 10:20:58;;;;;;;10.35;5.18;;;24.90;98.60;;;;;;5050858;28;20200;-75
2022/05/05 10:23:57;;;;;;;9.30;4.72;;;24.60;99.30;;;;;;5051247;28;20175;-74
2022/05/05 10:26:25;;;;;;;7.32;4.97;;;24.20;99.60;;;;;;5051849;28;20222;-75
2022/05/05 10:28:51;;;;;;;5.93;4.68;;;24.20;99.60;;;;;;5050094;28;20290;-75
2022/05/05 10:31:33;;;;;;;10.15;5.25;;;24.10;99.90;;;;;;5042472;28;20207;-78
2022/05/05 10:34:06;;;;;;;7.40;5.15;;;24.30;99.80;;;;;;5036203;28;20199;-74
2022/05/05 10:36:32;;;;;;;7.28;5.15;;;24.60;99.00;;;;;;5041185;28;20223;-78
2022/05/05 10:38:58;;;;;;;7.22;5.20;;;24.50;98.60;;;;;;5061978;22;20300;31
2022/05/05 10:41:39;;;;;;;7.93;5.15;;;24.10;98.60;;;;;;5063997;28;20295;-75
2022/05/05 10:44:16;;;;;;;8.07;4.70;;;24.00;98.90;;;;;;5069511;28;20213;-73
2022/05/05 10:46:51;;;;;;;8.85;4.95;;;24.30;99.10;;;;;;5073622;28;20233;-75
2022/05/05 10:49:32;;;;;;;10.02;5.30;;;24.40;98.80;;;;;;5075602;28;20201;-71
2022/05/05 10:52:09;;;;;;;8.25;4.75;;;24.50;98.80;;;;;;5051752;28;20209;-72
2022/05/05 10:54:36;;;;;;;8.75;5.53;;;24.70;98.00;;;;;;5092372;28;20214;-75
2022/05/05 10:57:23;;;;;;;9.57;4.93;;;24.30;97.70;;;;;;5087206;28;20646;-75
2022/05/05 11:00:14;;;;;;;6.05;4.07;;;24.40;97.70;;;;;;5082837;28;20268;-77
2022/05/05 11:03:00;;;;;;;8.88;5.25;;;24.50;97.90;;;;;;5094172;28;20575;-74
2022/05/05 11:05:35;;;;;;;11.48;5.30;;;24.10;97.00;;;;;;5078590;28;20203;-75
2022/05/05 11:10:48;;;;;;;9.02;4.57;;;23.20;98.80;;;;;;5089291;28;20565;-71
2022/05/05 11:13:35;;;;;;;8.70;5.10;;;23.10;99.10;;;;;;5057123;28;20203;-72
2022/05/05 11:22:18;;;;;;;9.30;4.40;;;23.90;99.10;;;;;;5082469;28;20243;-72
2022/05/05 11:24:48;;;;;;;6.55;4.80;;;24.60;99.60;;;;;;5088765;28;20271;-72
2022/05/05 11:27:19;;;;;;;9.65;5.35;;;24.70;98.90;;;;;;5089910;28;20686;-72
2022/05/05 11:29:50;;;;;;;9.20;4.88;;;24.40;98.10;;;;;;5058962;28;20249;-73
2022/05/05 11:32:16;;;;;;;8.52;4.47;;;24.00;98.70;;;;;;5078285;28;20206;-71
2022/05/05 11:34:45;;;;;;;7.75;4.97;;;23.80;99.50;;;;;;5066110;28;20202;-71
2022/05/05 11:37:11;;;;;;;9.82;4.90;;;23.50;99.90;;;;;;5081685;28;20206;-73
2022/05/05 11:39:37;;;;;;;8.57;5.47;;;22.90;99.90;;;;;;5057244;28;20257;-75
2022/05/05 11:42:11;;;;;;;10.43;5.18;;;22.80;99.90;;;;;;5087920;28;20175;-73
2022/05/05 11:44:37;;;;;;;9.32;5.50;;;22.70;99.90;;;;;;5081269;28;20275;-73
2022/05/05 11:47:14;;;;;;;7.97;4.88;;;22.50;99.90;;;;;;5068446;28;20690;-73
2022/05/05 11:49:43;;;;;;;8.95;4.93;;;22.70;99.90;;;;;;5087105;28;20306;-74
2022/05/05 11:52:10;;;;;;;7.53;4.28;;;22.90;99.90;;;;;;5070799;28;20682;-71
2022/05/05 11:54:36;;;;;;;9.95;5.13;;;23.10;99.90;;;;;;5090778;28;20208;-72
2022/05/05 11:57:02;;;;;;;7.65;5.05;;;23.10;99.90;;;;;;5086218;28;20197;-74
2022/05/05 12:02:21;;;;;;;10.60;5.35;;;23.00;99.90;;;;;;5090407;28;20225;-73
2022/05/05 12:04:49;;;;;;;8.90;5.13;;;22.70;99.90;;;;;;5088698;28;20198;-76
2022/05/05 12:07:20;;;;;;;12.85;5.15;;;22.60;99.90;;;;;;5088106;28;20248;-73
2022/05/05 12:09:56;;;;;;;8.38;4.65;;;22.50;99.90;;;;;;5076517;28;20678;-71
2022/05/05 12:12:23;;;;;;;8.85;4.78;;;22.00;99.90;;;;;;5052642;28;20253;-74
2022/05/05 12:14:52;;;;;;;6.90;3.88;;;21.90;99.90;;;;;;5084714;28;20171;-72
2022/05/05 12:17:23;;;;;;;8.45;4.55;;;21.90;99.90;;;;;;5057079;28;20206;-71
2022/05/05 12:19:59;;;;;;;10.45;4.70;;;22.10;99.90;;;;;;5082930;28;20621;-74
2022/05/05 12:22:32;;;;;;;7.60;4.13;;;22.40;99.90;;;;;;5091458;28;20222;-74
2022/05/05 12:25:17;;;;;;;5.95;4.47;;;22.50;99.90;;;;;;5092427;28;20269;-76
2022/05/05 12:27:58;;;;;;;9.82;4.93;;;22.20;99.90;;;;;;5066366;28;20216;-76
2022/05/05 12:30:29;;;;;;;10.50;4.45;;;21.80;99.90;;;;;;5091861;28;20202;-74
2022/05/05 12:32:55;;;;;;;7.35;4.15;;;21.70;99.90;;;;;;5074037;28;20167;-74
2022/05/05 12:35:40;;;;;;;8.50;3.97;;;21.70;99.90;;;;;;5092349;28;20201;-74
2022/05/05 12:38:08;;;;;;;7.20;4.07;;;22.10;99.90;;;;;;5080460;28;20585;-74
2022/05/05 12:40:35;;;;;;;7.53;3.60;;;22.10;99.90;;;;;;5056586;28;20219;-74
2022/05/05 12:43:05;;;;;;;8.23;4.30;;;22.30;99.90;;;;;;5074912;28;20297;-75
2022/05/05 12:45:32;;;;;;;6.15;3.90;;;22.40;99.90;;;;;;5091648;28;20238;-73
2022/05/05 12:47:59;;;;;;;9.23;3.78;;;22.60;99.90;;;;;;5091073;28;20170;-73
2022/05/05 12:50:41;;;;;;;6.55;3.90;;;22.50;99.90;;;;;;5087944;28;20202;-71
2022/05/05 13:01:42;;;;;;;7.90;5.53;;;22.60;99.90;;;;;;5070713;28;20209;-72
2022/05/05 13:04:12;;;;;;;8.65;4.55;;;22.90;99.90;;;;;;5071302;28;20218;-72
2022/05/05 13:06:39;;;;;;;7.90;4.68;;;22.80;99.20;;;;;;5052432;28;20294;-71
2022/05/05 13:09:08;;;;;;;6.50;4.60;;;22.60;99.10;;;;;;5069954;28;20545;-72
2022/05/05 13:11:34;;;;;;;10.90;5.03;;;22.50;99.60;;;;;;5076115;28;20198;-73
2022/05/05 13:14:00;;;;;;;8.43;4.45;;;22.60;99.00;;;;;;5069395;28;20245;-76
2022/05/05 13:16:28;;;;;;;10.23;5.38;;;22.60;98.90;;;;;;5077232;28;20201;-77
2022/05/05 13:18:54;;;;;;;10.43;4.80;;;22.40;98.60;;;;;;5070349;28;20202;-78
2022/05/05 13:21:19;;;;;;;8.00;4.25;;;22.00;99.70;;;;;;5070481;28;20275;-76
2022/05/05 13:23:45;;;;;;;9.02;4.93;;;21.90;99.90;;;;;;5087137;28;20170;-78
2022/05/05 13:26:11;;;;;;;11.77;4.35;;;22.10;99.90;;;;;;5058010;28;20639;-76
2022/05/05 13:28:37;;;;;;;10.77;4.20;;;22.10;99.90;;;;;;5080009;28;20214;-72
2022/05/05 13:31:02;;;;;;;6.88;3.80;;;22.20;99.90;;;;;;5078416;28;20214;-72
2022/05/05 13:33:28;;;;;;;9.00;4.28;;;22.50;99.90;;;;;;5085415;28;20202;-72
2022/05/05 13:35:53;;;;;;;8.00;4.43;;;22.70;99.20;;;;;;5085504;28;20167;-72